createdAt,value
2023-05-25T00:01:39.293Z,6.00
2023-05-25T00:04:05.945Z,7.00
2023-05-25T00:06:32.956Z,7.00
2023-05-25T00:08:59.466Z,6.25
2023-05-25T00:11:26.748Z,7.00
2023-05-25T00:13:53.597Z,6.80
2023-05-25T00:16:20.703Z,6.00
2023-05-25T00:18:48.824Z,6.50
2023-05-25T00:21:16.280Z,5.80
2023-05-25T00:23:43.047Z,5.50
2023-05-25T00:26:09.817Z,7.00
2023-05-25T00:28:36.382Z,5.75
2023-05-25T00:31:02.982Z,6.75
2023-05-25T00:33:29.555Z,5.80
2023-05-25T00:35:57.401Z,7.60
2023-05-25T00:38:23.989Z,6.00
2023-05-25T00:40:54.692Z,5.75
2023-05-25T00:43:21.141Z,7.25
2023-05-25T00:45:48.001Z,7.25
2023-05-25T00:48:14.749Z,7.50
2023-05-25T00:50:42.421Z,9.00
2023-05-25T00:53:10.105Z,8.60
2023-05-25T00:55:39.017Z,7.00
2023-05-25T00:58:08.468Z,8.00
2023-05-25T01:00:37.712Z,7.60
2023-05-25T01:03:11.969Z,8.00
2023-05-25T01:05:42.579Z,7.00
2023-05-25T01:08:11.789Z,7.40
2023-05-25T01:10:39.316Z,8.00
2023-05-25T01:13:07.101Z,7.00
2023-05-25T01:15:33.887Z,9.00
2023-05-25T01:18:00.413Z,7.75
2023-05-25T01:20:32.846Z,8.00
2023-05-25T01:23:11.916Z,10.00
2023-05-25T01:25:40.677Z,8.00
2023-05-25T01:28:09.408Z,8.75
2023-05-25T01:30:37.403Z,9.60
2023-05-25T01:33:05.255Z,8.00
2023-05-25T01:35:31.880Z,8.80
2023-05-25T01:37:58.877Z,8.00
2023-05-25T01:40:25.476Z,8.00
2023-05-25T01:42:51.966Z,7.20
2023-05-25T01:45:18.660Z,10.00
2023-05-25T01:47:46.999Z,7.00
2023-05-25T01:50:32.059Z,8.00
2023-05-25T01:52:58.652Z,8.00
2023-05-25T01:55:27.331Z,7.50
2023-05-25T01:57:57.971Z,9.00
2023-05-25T02:00:31.417Z,8.00
2023-05-25T02:02:57.979Z,8.00
2023-05-25T02:05:24.701Z,11.00
2023-05-25T02:07:51.258Z,10.00
2023-05-25T02:10:17.737Z,11.00
2023-05-25T02:12:44.328Z,8.60
2023-05-25T02:15:11.221Z,11.20
2023-05-25T02:17:38.475Z,11.40
2023-05-25T02:20:08.798Z,11.50
2023-05-25T02:22:35.557Z,10.50
2023-05-25T02:25:02.034Z,12.00
2023-05-25T02:27:28.557Z,11.00
2023-05-25T02:29:55.124Z,11.00
2023-05-25T02:32:22.527Z,11.40
2023-05-25T02:34:49.070Z,10.40
2023-05-25T02:37:15.735Z,10.50
2023-05-25T02:39:42.249Z,10.00
2023-05-25T02:42:08.714Z,11.00
2023-05-25T02:44:35.470Z,11.00
2023-05-25T02:47:02.147Z,9.60
2023-05-25T02:49:30.033Z,9.00
2023-05-25T02:51:56.672Z,9.60
2023-05-25T02:54:23.116Z,11.00
2023-05-25T02:56:49.588Z,10.00
2023-05-25T02:59:16.107Z,9.20
2023-05-25T03:01:42.630Z,10.75
2023-05-25T03:04:09.200Z,10.50
2023-05-25T03:06:36.726Z,11.00
2023-05-25T03:09:05.164Z,10.00
2023-05-25T03:11:31.620Z,8.60
2023-05-25T03:13:58.218Z,8.00
2023-05-25T03:16:26.005Z,9.20
2023-05-25T03:18:52.872Z,10.00
2023-05-25T03:21:19.352Z,8.00
2023-05-25T03:23:46.021Z,8.80
2023-05-25T03:26:12.511Z,9.40
2023-05-25T03:28:38.987Z,8.00
2023-05-25T03:31:07.476Z,9.60
2023-05-25T03:33:34.207Z,7.00
2023-05-25T03:36:00.837Z,8.00
2023-05-25T03:38:27.425Z,8.50
2023-05-25T03:40:53.873Z,8.00
2023-05-25T03:43:20.437Z,8.00
2023-05-25T03:45:47.280Z,8.40
2023-05-25T03:48:13.953Z,7.40
2023-05-25T03:50:41.046Z,6.00
2023-05-25T03:53:07.537Z,7.00
2023-05-25T03:55:34.022Z,6.25
2023-05-25T03:58:00.449Z,6.00
2023-05-25T04:00:27.152Z,8.00
2023-05-25T04:02:53.675Z,6.00
2023-05-25T04:05:20.297Z,5.40
2023-05-25T04:07:46.722Z,6.00
2023-05-25T04:10:13.162Z,6.00
2023-05-25T04:12:39.717Z,7.00
2023-05-25T04:15:09.370Z,8.00
2023-05-25T04:17:39.138Z,6.00
2023-05-25T04:20:07.135Z,5.00
2023-05-25T04:22:33.676Z,6.00
2023-05-25T04:25:00.170Z,6.00
2023-05-25T04:27:26.825Z,6.00
2023-05-25T04:29:54.309Z,5.75
2023-05-25T04:32:21.638Z,5.00
2023-05-25T04:34:48.401Z,6.00
2023-05-25T04:37:15.052Z,5.00
2023-05-25T04:39:41.589Z,6.25
2023-05-25T04:42:08.198Z,6.00
2023-05-25T04:44:34.873Z,5.60
2023-05-25T04:47:01.708Z,6.40
2023-05-25T04:49:28.462Z,5.40
2023-05-25T04:51:55.065Z,4.00
2023-05-25T04:54:21.965Z,5.00
2023-05-25T04:56:48.465Z,4.60
2023-05-25T04:59:14.988Z,4.80
2023-05-25T05:01:41.641Z,6.00
2023-05-25T05:04:08.414Z,5.50
2023-05-25T05:06:35.171Z,4.00
2023-05-25T05:09:01.644Z,5.00
2023-05-25T05:11:28.683Z,6.00
2023-05-25T05:13:55.986Z,6.40
2023-05-25T05:16:22.978Z,6.50
2023-05-25T05:18:49.690Z,3.00
2023-05-25T05:21:16.260Z,5.00
2023-05-25T05:23:42.998Z,5.40
2023-05-25T05:26:11.655Z,6.00
2023-05-25T05:28:38.295Z,5.00
2023-05-25T05:31:04.852Z,6.00
2023-05-25T05:33:31.518Z,5.00
2023-05-25T05:35:58.091Z,5.00
2023-05-25T05:38:24.566Z,4.50
2023-05-25T05:40:51.088Z,5.00
2023-05-25T05:43:17.685Z,5.00
2023-05-25T05:45:44.282Z,5.00
2023-05-25T05:48:11.187Z,5.00
2023-05-25T05:50:40.368Z,5.00
2023-05-25T05:53:10.040Z,5.00
2023-05-25T05:55:36.965Z,6.00
2023-05-25T05:58:03.432Z,6.00
2023-05-25T06:00:30.118Z,6.00
2023-05-25T06:02:56.942Z,6.40
2023-05-25T06:05:23.597Z,7.00
2023-05-25T06:07:50.325Z,5.00
2023-05-25T06:10:16.870Z,5.00
2023-05-25T06:12:43.376Z,6.00
2023-05-25T06:15:10.177Z,5.00
2023-05-25T06:17:37.293Z,5.80
2023-05-25T06:20:04.000Z,5.00
2023-05-25T06:22:30.592Z,5.00
2023-05-25T06:24:57.849Z,5.00
2023-05-25T06:27:24.390Z,6.00
2023-05-25T06:29:50.885Z,5.00
2023-05-25T06:32:17.369Z,5.00
2023-05-25T06:34:43.967Z,12.25
2023-05-25T06:37:10.905Z,7.00
2023-05-25T06:39:37.519Z,8.50
2023-05-25T06:42:04.125Z,11.60
2023-05-25T06:44:30.631Z,12.00
2023-05-25T06:46:57.121Z,9.00
2023-05-25T06:49:23.628Z,8.00
2023-05-25T06:51:51.221Z,7.00
2023-05-25T06:54:17.732Z,5.80
2023-05-25T06:56:44.239Z,8.00
2023-05-25T06:59:10.923Z,8.00
2023-05-25T07:01:37.606Z,8.00
2023-05-25T07:04:04.112Z,5.50
2023-05-25T07:06:30.596Z,5.00
2023-05-25T07:08:57.136Z,4.00
2023-05-25T07:11:23.695Z,4.60
2023-05-25T07:13:50.248Z,4.20
2023-05-25T07:16:16.956Z,5.00
2023-05-25T07:18:43.522Z,3.00
2023-05-25T07:21:11.474Z,5.00
2023-05-25T07:23:38.576Z,4.50
2023-05-25T07:26:06.101Z,5.00
2023-05-25T07:28:32.812Z,5.00
2023-05-25T07:30:59.389Z,5.00
2023-05-25T07:33:26.013Z,4.00
2023-05-25T07:35:52.558Z,3.80
2023-05-25T07:38:19.089Z,5.60
2023-05-25T07:40:47.469Z,6.00
2023-05-25T07:43:14.047Z,5.00
2023-05-25T07:45:40.605Z,5.00
2023-05-25T07:48:07.842Z,5.00
2023-05-25T07:50:34.506Z,4.25
2023-05-25T07:53:01.110Z,2.75
2023-05-25T07:55:27.605Z,6.00
2023-05-25T07:57:54.109Z,5.00
2023-05-25T08:00:21.037Z,5.00
2023-05-25T08:02:47.705Z,4.20
2023-05-25T08:05:14.520Z,6.60
2023-05-25T08:07:42.852Z,5.00
2023-05-25T08:10:09.879Z,6.40
2023-05-25T08:12:47.842Z,6.60
2023-05-25T08:15:16.111Z,6.50
2023-05-25T08:17:42.728Z,6.25
2023-05-25T08:20:10.361Z,6.25
2023-05-25T08:22:36.942Z,6.00
2023-05-25T08:25:04.364Z,6.50
2023-05-25T08:27:32.845Z,6.20
2023-05-25T08:30:01.022Z,4.00
2023-05-25T08:32:27.626Z,6.00
2023-05-25T08:34:54.146Z,5.75
2023-05-25T08:37:23.654Z,5.40
2023-05-25T08:39:50.614Z,7.00
2023-05-25T08:42:17.282Z,5.00
2023-05-25T08:44:43.925Z,6.00
2023-05-25T08:47:12.029Z,7.00
2023-05-25T08:49:39.666Z,5.40
2023-05-25T08:52:09.986Z,7.00
2023-05-25T08:54:37.037Z,7.20
2023-05-25T08:57:16.074Z,7.00
2023-05-25T08:59:42.509Z,8.00
2023-05-25T09:02:29.261Z,7.00
2023-05-25T09:04:56.105Z,9.00
2023-05-25T09:07:23.114Z,9.00
2023-05-25T09:09:50.354Z,7.80
2023-05-25T09:12:17.185Z,8.80
2023-05-25T09:14:47.982Z,9.00
2023-05-25T09:17:15.598Z,8.60
2023-05-25T09:19:42.302Z,8.00
2023-05-25T09:24:41.449Z,9.20
2023-05-25T09:27:11.363Z,7.80
2023-05-25T09:29:37.910Z,8.00
2023-05-25T09:32:06.292Z,9.00
2023-05-25T09:34:35.748Z,10.00
2023-05-25T09:37:21.018Z,7.50
2023-05-25T09:39:48.084Z,6.80
2023-05-25T09:42:14.668Z,8.80
2023-05-25T09:44:42.870Z,7.20
2023-05-25T09:47:09.636Z,7.60
2023-05-25T09:49:36.600Z,7.50
2023-05-25T09:52:03.207Z,8.00
2023-05-25T09:54:29.729Z,9.00
2023-05-25T09:56:56.297Z,9.50
2023-05-25T09:59:23.226Z,9.00
2023-05-25T10:01:53.857Z,7.00
2023-05-25T10:04:21.050Z,9.00
2023-05-25T10:06:49.820Z,9.00
2023-05-25T10:09:18.376Z,10.60
2023-05-25T10:11:45.273Z,9.00
2023-05-25T10:14:14.746Z,10.80
2023-05-25T10:16:42.378Z,11.75
2023-05-25T10:19:19.136Z,11.00
2023-05-25T10:21:59.572Z,11.00
2023-05-25T10:24:28.847Z,11.25
2023-05-25T10:26:57.914Z,12.67
2023-05-25T10:29:25.250Z,22.00
2023-05-25T10:31:52.811Z,12.50
2023-05-25T10:34:20.255Z,9.50
2023-05-25T10:36:48.887Z,9.00
2023-05-25T10:39:15.811Z,11.00
2023-05-25T10:41:42.381Z,11.67
2023-05-25T10:44:09.601Z,11.00
2023-05-25T10:46:36.688Z,11.50
2023-05-25T10:49:03.910Z,10.60
2023-05-25T10:51:40.353Z,11.00
2023-05-25T10:54:07.749Z,8.20
2023-05-25T10:56:34.246Z,15.00
2023-05-25T10:59:02.114Z,9.60
2023-05-25T11:01:31.263Z,11.20
2023-05-25T11:04:13.666Z,9.00
2023-05-25T11:06:40.559Z,7.60
2023-05-25T11:09:07.290Z,9.00
2023-05-25T11:11:42.889Z,6.75
2023-05-25T11:14:21.184Z,9.50
2023-05-25T11:17:11.801Z,8.00
2023-05-25T11:19:39.233Z,8.00
2023-05-25T11:22:28.724Z,6.50
2023-05-25T11:24:57.346Z,8.00
2023-05-25T11:27:30.794Z,10.00
2023-05-25T11:29:58.287Z,10.60
2023-05-25T11:32:26.383Z,9.00
2023-05-25T11:34:54.206Z,7.75
2023-05-25T11:37:21.478Z,8.40
2023-05-25T11:39:57.620Z,7.00
2023-05-25T11:42:24.831Z,6.60
2023-05-25T11:44:51.822Z,8.80
2023-05-25T11:47:23.199Z,8.00
2023-05-25T11:49:50.157Z,7.00
2023-05-25T11:52:17.517Z,7.40
2023-05-25T11:54:44.359Z,9.00
2023-05-25T11:57:27.151Z,6.50
2023-05-25T11:59:54.552Z,6.25
2023-05-25T12:02:21.689Z,6.00
2023-05-25T12:05:04.221Z,6.25
2023-05-25T12:07:31.718Z,6.80
2023-05-25T12:10:11.499Z,5.00
2023-05-25T12:12:40.855Z,7.00
2023-05-25T12:15:08.422Z,7.00
2023-05-25T12:17:35.143Z,6.00
2023-05-25T12:20:02.061Z,6.00
2023-05-25T12:22:28.768Z,7.00
2023-05-25T12:24:55.352Z,6.00
2023-05-25T12:27:24.822Z,6.00
2023-05-25T12:29:53.157Z,6.00
2023-05-25T12:32:19.783Z,7.00
2023-05-25T12:34:46.510Z,7.00
2023-05-25T12:37:20.194Z,7.75
2023-05-25T12:39:47.290Z,5.75
2023-05-25T12:42:17.732Z,6.33
2023-05-25T12:44:45.089Z,4.80
2023-05-25T12:47:14.749Z,5.50
2023-05-25T12:49:45.574Z,6.00
2023-05-25T12:52:31.046Z,4.25
2023-05-25T12:54:57.673Z,5.75
2023-05-25T12:57:34.061Z,4.40
2023-05-25T13:00:00.592Z,4.20
2023-05-25T13:02:27.188Z,6.40
2023-05-25T13:04:53.819Z,5.75
2023-05-25T13:07:22.731Z,6.00
2023-05-25T13:09:49.267Z,4.60
2023-05-25T13:12:15.765Z,6.00
2023-05-25T13:14:42.199Z,5.40
2023-05-25T13:17:08.745Z,4.75
2023-05-25T13:19:35.282Z,4.00
2023-05-25T13:22:01.864Z,3.40
2023-05-25T13:24:28.344Z,4.80
2023-05-25T13:26:54.838Z,5.40
2023-05-25T13:29:21.361Z,5.00
2023-05-25T13:31:48.264Z,5.00
2023-05-25T13:34:14.829Z,4.00
2023-05-25T13:36:41.396Z,4.50
2023-05-25T13:39:10.898Z,5.00
2023-05-25T13:41:37.442Z,4.50
2023-05-25T13:44:04.087Z,5.40
2023-05-25T13:46:34.984Z,7.00
2023-05-25T13:49:02.343Z,5.00
2023-05-25T13:51:28.851Z,4.50
2023-05-25T13:53:55.371Z,4.50
2023-05-25T13:56:22.492Z,3.00
2023-05-25T13:58:49.078Z,3.80
2023-05-25T14:01:15.742Z,5.00
2023-05-25T14:03:42.656Z,5.75
2023-05-25T14:06:09.299Z,4.20
2023-05-25T14:08:35.786Z,4.80
2023-05-25T14:11:02.513Z,5.00
2023-05-25T14:13:29.005Z,4.00
2023-05-25T14:15:55.606Z,6.25
2023-05-25T14:18:22.292Z,5.00
2023-05-25T14:20:48.905Z,5.00
2023-05-25T14:23:18.228Z,5.00
2023-05-25T14:25:45.732Z,5.00
2023-05-25T14:28:12.493Z,5.00
2023-05-25T14:30:38.954Z,6.60
2023-05-25T14:33:05.567Z,5.75
2023-05-25T14:35:32.061Z,5.00
2023-05-25T14:37:58.543Z,5.00
2023-05-25T14:40:25.067Z,5.50
2023-05-25T14:42:51.641Z,4.20
2023-05-25T14:45:19.067Z,6.20
2023-05-25T14:47:45.846Z,5.50
2023-05-25T14:50:12.386Z,4.75
2023-05-25T14:52:38.970Z,5.00
2023-05-25T14:55:05.743Z,5.00
2023-05-25T14:57:32.244Z,4.00
2023-05-25T14:59:58.744Z,6.00
2023-05-25T15:02:25.579Z,5.20
2023-05-25T15:04:54.124Z,6.00
2023-05-25T15:07:21.410Z,6.00
2023-05-25T15:09:48.290Z,6.00
2023-05-25T15:12:15.145Z,6.00
2023-05-25T15:14:42.548Z,5.00
2023-05-25T15:17:09.724Z,5.40
2023-05-25T15:19:36.467Z,6.00
2023-05-25T15:22:03.693Z,4.00
2023-05-25T15:24:30.238Z,4.60
2023-05-25T15:26:56.727Z,6.00
2023-05-25T15:29:23.246Z,6.20
2023-05-25T15:31:50.986Z,4.80
2023-05-25T15:34:17.624Z,4.00
2023-05-25T15:36:44.163Z,5.20
2023-05-25T15:39:11.666Z,6.00
2023-05-25T15:41:38.161Z,3.20
2023-05-25T15:44:08.233Z,7.00
2023-05-25T15:46:36.037Z,6.60
2023-05-25T15:49:02.647Z,6.25
2023-05-25T15:51:29.136Z,5.40
2023-05-25T15:53:55.702Z,7.00
2023-05-25T15:56:23.009Z,7.00
2023-05-25T15:58:49.537Z,7.00
2023-05-25T16:01:16.084Z,8.40
2023-05-25T16:03:43.320Z,8.00
2023-05-25T16:06:10.331Z,7.60
2023-05-25T16:08:36.811Z,8.00
2023-05-25T16:11:03.299Z,9.50
2023-05-25T16:13:29.835Z,9.00
2023-05-25T16:15:56.341Z,8.00
2023-05-25T16:18:22.863Z,9.40
2023-05-25T16:20:55.856Z,6.50
2023-05-25T16:23:22.757Z,9.40
2023-05-25T16:25:49.638Z,8.00
2023-05-25T16:28:16.401Z,7.00
2023-05-25T16:30:42.997Z,8.00
2023-05-25T16:33:09.509Z,8.00
2023-05-25T16:35:36.131Z,9.00
2023-05-25T16:38:02.611Z,11.00
2023-05-25T16:40:29.038Z,9.50
2023-05-25T16:42:55.517Z,8.50
2023-05-25T16:45:22.050Z,9.40
2023-05-25T16:47:49.555Z,8.00
2023-05-25T16:50:16.164Z,9.00
2023-05-25T16:52:42.695Z,6.40
2023-05-25T16:55:09.260Z,7.50
2023-05-25T16:57:35.743Z,9.00
2023-05-25T17:00:02.233Z,7.60
2023-05-25T17:02:28.833Z,6.00
2023-05-25T17:04:55.928Z,9.00
2023-05-25T17:07:22.455Z,8.80
2023-05-25T17:09:48.998Z,7.50
2023-05-25T17:12:15.560Z,8.60
2023-05-25T17:14:42.085Z,8.50
2023-05-25T17:17:08.572Z,8.00
2023-05-25T17:19:35.064Z,8.00
2023-05-25T17:22:01.585Z,11.00
2023-05-25T17:24:28.130Z,9.50
2023-05-25T17:26:54.648Z,9.75
2023-05-25T17:29:21.236Z,11.00
2023-05-25T17:31:48.940Z,11.00
2023-05-25T17:34:16.186Z,10.40
2023-05-25T17:36:43.047Z,10.00
2023-05-25T17:39:09.545Z,8.80
2023-05-25T17:41:36.053Z,11.00
2023-05-25T17:44:02.569Z,13.00
2023-05-25T17:46:29.309Z,12.00
2023-05-25T17:48:56.028Z,11.00
2023-05-25T17:51:22.570Z,11.60
2023-05-25T17:53:49.211Z,13.00
2023-05-25T17:56:15.881Z,12.00
2023-05-25T17:58:47.202Z,12.00
2023-05-25T18:01:17.093Z,11.40
2023-05-25T18:03:44.025Z,12.80
2023-05-25T18:06:10.660Z,12.80
2023-05-25T18:08:37.193Z,15.00
2023-05-25T18:11:03.868Z,15.00
2023-05-25T18:13:30.583Z,15.00
2023-05-25T18:15:57.080Z,14.00
2023-05-25T18:18:24.904Z,13.00
2023-05-25T18:20:51.665Z,13.00
2023-05-25T18:23:18.189Z,14.40
2023-05-25T18:25:45.639Z,12.50
2023-05-25T18:28:15.104Z,13.25
2023-05-25T18:30:44.931Z,15.00
2023-05-25T18:33:11.623Z,12.00
2023-05-25T18:35:38.357Z,10.25
2023-05-25T18:38:04.972Z,12.00
2023-05-25T18:40:31.661Z,12.20
2023-05-25T18:42:58.366Z,15.00
2023-05-25T18:45:24.941Z,13.00
2023-05-25T18:47:51.501Z,11.60
2023-05-25T18:50:18.259Z,12.00
2023-05-25T18:52:44.754Z,13.00
2023-05-25T18:55:11.243Z,13.00
2023-05-25T18:57:37.727Z,11.00
2023-05-25T19:00:07.407Z,11.40
2023-05-25T19:02:36.253Z,11.00
2023-05-25T19:05:02.938Z,12.80
2023-05-25T19:07:29.437Z,13.00
2023-05-25T19:09:55.984Z,9.40
2023-05-25T19:12:22.482Z,10.00
2023-05-25T19:14:48.975Z,10.20
2023-05-25T19:17:15.668Z,14.50
2023-05-25T19:19:42.139Z,11.60
2023-05-25T19:22:08.808Z,11.25
2023-05-25T19:24:35.448Z,11.00
2023-05-25T19:27:03.799Z,14.00
2023-05-25T19:29:30.371Z,13.50
2023-05-25T19:31:56.966Z,14.00
2023-05-25T19:34:23.520Z,13.00
2023-05-25T19:36:59.736Z,13.25
2023-05-25T19:39:31.707Z,17.00
2023-05-25T19:41:58.414Z,16.40
2023-05-25T19:44:25.452Z,15.00
2023-05-25T19:46:51.971Z,12.60
2023-05-25T19:49:18.486Z,15.50
2023-05-25T19:51:44.956Z,16.40
2023-05-25T19:54:11.519Z,14.40
2023-05-25T19:56:38.025Z,15.80
2023-05-25T19:59:04.696Z,18.00
2023-05-25T20:01:31.559Z,15.80
2023-05-25T20:03:58.129Z,14.40
2023-05-25T20:06:24.915Z,16.50
2023-05-25T20:08:51.452Z,17.00
2023-05-25T20:11:17.953Z,16.00
2023-05-25T20:13:45.931Z,17.75
2023-05-25T20:16:13.293Z,16.00
2023-05-25T20:18:40.086Z,16.60
2023-05-25T20:21:06.575Z,18.40
2023-05-25T20:23:33.073Z,16.40
2023-05-25T20:25:59.578Z,16.40
2023-05-25T20:28:26.210Z,18.00
2023-05-25T20:30:52.727Z,16.50
2023-05-25T20:33:19.535Z,15.75
2023-05-25T20:35:46.324Z,18.00
2023-05-25T20:38:13.180Z,16.50
2023-05-25T20:40:39.671Z,17.75
2023-05-25T20:43:06.128Z,19.40
2023-05-25T20:45:32.638Z,16.00
2023-05-25T20:48:03.840Z,19.00
2023-05-25T20:50:31.020Z,18.00
2023-05-25T20:52:57.831Z,17.00
2023-05-25T20:55:24.296Z,17.20
2023-05-25T20:57:50.918Z,17.00
2023-05-25T21:00:17.619Z,19.25
2023-05-25T21:02:44.162Z,18.00
2023-05-25T21:05:11.144Z,17.00
2023-05-25T21:07:37.814Z,19.00
2023-05-25T21:10:04.475Z,17.75
2023-05-25T21:12:31.552Z,19.20
2023-05-25T21:14:58.016Z,19.20
2023-05-25T21:17:24.874Z,18.00
2023-05-25T21:19:51.643Z,20.00
2023-05-25T21:22:18.320Z,19.00
2023-05-25T21:24:44.905Z,21.00
2023-05-25T21:27:11.875Z,17.00
2023-05-25T21:29:38.394Z,20.75
2023-05-25T21:32:04.967Z,20.40
2023-05-25T21:34:31.757Z,20.40
2023-05-25T21:36:58.333Z,18.50
2023-05-25T21:39:24.858Z,18.00
2023-05-25T21:41:51.316Z,19.50
2023-05-25T21:44:18.525Z,20.00
2023-05-25T21:46:45.132Z,20.00
2023-05-25T21:49:11.691Z,20.40
2023-05-25T21:51:38.158Z,19.00
2023-05-25T21:54:04.731Z,17.00
2023-05-25T21:56:31.283Z,18.00
2023-05-25T21:58:57.837Z,18.25
2023-05-25T22:01:24.390Z,17.50
2023-05-25T22:03:50.905Z,17.80
2023-05-25T22:06:17.412Z,18.25
2023-05-25T22:08:44.105Z,17.00
2023-05-25T22:11:10.627Z,18.20
2023-05-25T22:13:37.114Z,19.00
2023-05-25T22:16:03.592Z,17.20
2023-05-25T22:18:30.052Z,16.75
2023-05-25T22:20:56.636Z,18.00
2023-05-25T22:23:23.197Z,19.40
2023-05-25T22:25:49.746Z,17.80
2023-05-25T22:28:16.500Z,19.50
2023-05-25T22:30:42.996Z,17.20
2023-05-25T22:33:09.545Z,18.00
2023-05-25T22:35:36.323Z,21.00
2023-05-25T22:38:02.808Z,21.00
2023-05-25T22:40:29.246Z,19.50
2023-05-25T22:42:55.844Z,20.20
2023-05-25T22:45:22.469Z,20.75
2023-05-25T22:47:49.076Z,19.75
2023-05-25T22:50:15.821Z,20.00
2023-05-25T22:52:42.400Z,20.40
2023-05-25T22:55:09.123Z,21.60
2023-05-25T22:57:35.788Z,18.00
2023-05-25T23:00:02.488Z,21.00
2023-05-25T23:02:29.160Z,21.50
2023-05-25T23:04:55.754Z,19.40
2023-05-25T23:07:22.212Z,18.80
2023-05-25T23:09:48.673Z,19.40
2023-05-25T23:12:15.236Z,20.40
2023-05-25T23:14:44.481Z,17.60
2023-05-25T23:17:11.348Z,20.00
2023-05-25T23:19:44.785Z,18.25
2023-05-25T23:22:11.341Z,19.00
2023-05-25T23:24:37.918Z,19.60
2023-05-25T23:27:05.513Z,20.40
2023-05-25T23:29:31.988Z,18.75
2023-05-25T23:31:58.596Z,17.25
2023-05-25T23:34:25.221Z,20.00
2023-05-25T23:36:54.135Z,18.00
2023-05-25T23:39:21.172Z,20.00
2023-05-25T23:41:47.618Z,19.50
2023-05-25T23:44:14.179Z,21.00
2023-05-25T23:46:40.762Z,20.75
2023-05-25T23:49:07.208Z,20.00
2023-05-25T23:51:33.713Z,19.60
2023-05-25T23:54:00.238Z,18.00
2023-05-25T23:56:28.288Z,22.00
2023-05-25T23:58:54.938Z,20.00
